createdAt,value
2017-09-25T00:00:54.258Z,19.40
2017-09-25T00:03:20.686Z,18.73
2017-09-25T00:05:47.089Z,18.17
2017-09-25T00:08:14.251Z,17.40
2017-09-25T00:10:40.638Z,17.77
2017-09-25T00:13:07.054Z,16.67
2017-09-25T00:15:34.201Z,19.67
2017-09-25T00:18:02.270Z,18.00
2017-09-25T00:20:29.408Z,18.83
2017-09-25T00:22:56.008Z,18.47
2017-09-25T00:25:22.410Z,18.20
2017-09-25T00:27:48.783Z,18.30
2017-09-25T00:30:15.217Z,18.70
2017-09-25T00:32:41.630Z,20.40
2017-09-25T00:35:08.045Z,18.67
2017-09-25T00:37:34.431Z,18.90
2017-09-25T00:40:00.873Z,19.07
2017-09-25T00:42:27.315Z,21.40
2017-09-25T00:44:54.508Z,21.43
2017-09-25T00:47:20.919Z,22.07
2017-09-25T00:49:47.351Z,19.73
2017-09-25T00:52:18.883Z,20.03
2017-09-25T00:54:46.061Z,19.20
2017-09-25T00:57:12.461Z,22.33
2017-09-25T00:59:45.822Z,19.37
2017-09-25T01:02:24.572Z,17.60
2017-09-25T01:05:00.211Z,18.37
2017-09-25T01:07:26.634Z,19.10
2017-09-25T01:09:53.033Z,18.43
2017-09-25T01:12:19.452Z,20.90
2017-09-25T01:14:45.857Z,19.07
2017-09-25T01:17:12.312Z,18.10
2017-09-25T01:19:38.796Z,20.40
2017-09-25T01:22:05.213Z,20.60
2017-09-25T01:24:31.660Z,20.30
2017-09-25T01:26:58.067Z,20.23
2017-09-25T01:29:24.510Z,18.23
2017-09-25T01:31:50.941Z,21.07
2017-09-25T01:34:17.352Z,19.70
2017-09-25T01:36:43.766Z,20.77
2017-09-25T01:39:10.944Z,23.33
2017-09-25T01:41:37.403Z,19.37
2017-09-25T01:44:04.541Z,21.43
2017-09-25T01:46:30.962Z,19.53
2017-09-25T01:48:57.352Z,20.73
2017-09-25T01:51:23.745Z,21.10
2017-09-25T01:53:50.135Z,20.60
2017-09-25T01:56:17.280Z,21.90
2017-09-25T01:58:44.417Z,21.03
2017-09-25T02:01:10.820Z,19.17
2017-09-25T02:03:37.250Z,21.23
2017-09-25T02:06:05.825Z,19.77
2017-09-25T02:08:32.243Z,19.83
2017-09-25T02:10:58.652Z,21.27
2017-09-25T02:13:25.143Z,21.97
2017-09-25T02:15:51.551Z,20.83
2017-09-25T02:18:17.981Z,19.27
2017-09-25T02:20:44.381Z,19.97
2017-09-25T02:23:10.792Z,20.87
2017-09-25T02:25:37.188Z,19.27
2017-09-25T02:28:03.606Z,21.40
2017-09-25T02:30:30.054Z,20.10
2017-09-25T02:32:56.551Z,19.10
2017-09-25T02:35:22.991Z,20.43
2017-09-25T02:37:49.378Z,17.03
2017-09-25T02:40:15.796Z,19.63
2017-09-25T02:42:42.211Z,23.10
2017-09-25T02:45:08.633Z,21.87
2017-09-25T02:47:35.036Z,21.43
2017-09-25T02:50:02.194Z,19.50
2017-09-25T02:52:29.336Z,21.87
2017-09-25T02:54:56.476Z,21.23
2017-09-25T02:57:22.873Z,20.53
2017-09-25T02:59:49.281Z,20.83
2017-09-25T03:02:15.681Z,20.00
2017-09-25T03:04:42.858Z,22.00
2017-09-25T03:07:09.255Z,21.40
2017-09-25T03:09:36.442Z,19.10
2017-09-25T03:12:02.829Z,18.50
2017-09-25T03:14:29.225Z,19.73
2017-09-25T03:16:55.676Z,20.53
2017-09-25T03:19:23.592Z,21.93
2017-09-25T03:21:49.993Z,21.90
2017-09-25T03:24:17.920Z,20.70
2017-09-25T03:26:44.326Z,20.67
2017-09-25T03:29:10.711Z,19.13
2017-09-25T03:31:37.126Z,21.27
2017-09-25T03:34:03.586Z,20.87
2017-09-25T03:36:30.018Z,21.80
2017-09-25T03:38:57.182Z,21.40
2017-09-25T03:41:23.596Z,20.80
2017-09-25T03:43:50.009Z,20.60
2017-09-25T03:46:16.432Z,22.33
2017-09-25T03:48:42.838Z,19.47
2017-09-25T03:51:09.236Z,21.20
2017-09-25T03:53:35.610Z,17.43
2017-09-25T03:56:02.013Z,18.40
2017-09-25T03:58:29.142Z,18.60
2017-09-25T04:00:55.540Z,18.80
2017-09-25T04:03:21.941Z,18.17
2017-09-25T04:05:49.086Z,18.40
2017-09-25T04:08:16.260Z,18.90
2017-09-25T04:10:42.712Z,18.37
2017-09-25T04:13:09.094Z,17.47
2017-09-25T04:15:36.281Z,17.30
2017-09-25T04:18:02.665Z,17.50
2017-09-25T04:20:29.098Z,18.20
2017-09-25T04:22:55.661Z,22.33
2017-09-25T04:25:22.096Z,22.60
2017-09-25T04:27:48.517Z,22.77
2017-09-25T04:30:15.673Z,23.03
2017-09-25T04:32:42.839Z,23.90
2017-09-25T04:35:09.489Z,24.73
2017-09-25T04:37:35.900Z,22.30
2017-09-25T04:40:02.358Z,21.97
2017-09-25T04:42:28.750Z,20.37
2017-09-25T04:44:55.989Z,19.00
2017-09-25T04:47:22.383Z,19.37
2017-09-25T04:49:48.779Z,19.17
2017-09-25T04:52:15.944Z,18.70
2017-09-25T04:54:42.348Z,18.20
2017-09-25T04:57:09.528Z,18.87
2017-09-25T04:59:35.953Z,19.17
2017-09-25T05:02:02.359Z,18.90
2017-09-25T05:04:28.750Z,20.53
2017-09-25T05:06:55.257Z,20.80
2017-09-25T05:09:21.680Z,18.97
2017-09-25T05:11:48.193Z,19.40
2017-09-25T05:14:14.605Z,21.03
2017-09-25T05:16:41.078Z,22.40
2017-09-25T05:19:07.520Z,21.70
2017-09-25T05:21:33.967Z,21.83
2017-09-25T05:24:00.483Z,21.33
2017-09-25T05:26:27.102Z,22.30
2017-09-25T05:28:53.557Z,22.33
2017-09-25T05:31:19.937Z,22.83
2017-09-25T05:33:46.348Z,23.20
2017-09-25T05:36:12.898Z,22.00
2017-09-25T05:38:39.316Z,21.10
2017-09-25T05:41:05.685Z,22.10
2017-09-25T05:43:32.820Z,25.07
2017-09-25T05:45:59.235Z,23.47
2017-09-25T05:48:25.673Z,24.00
2017-09-25T05:50:52.869Z,24.97
2017-09-25T05:53:20.038Z,22.80
2017-09-25T05:55:46.584Z,24.00
2017-09-25T05:58:12.982Z,23.67
2017-09-25T06:00:39.409Z,24.27
2017-09-25T06:03:05.795Z,22.40
2017-09-25T06:05:32.197Z,24.37
2017-09-25T06:07:59.341Z,24.53
2017-09-25T06:10:28.450Z,22.00
2017-09-25T06:12:54.918Z,24.53
2017-09-25T06:15:21.352Z,21.20
2017-09-25T06:17:47.769Z,22.50
2017-09-25T06:20:14.202Z,22.43
2017-09-25T06:22:40.642Z,23.50
2017-09-25T06:25:07.058Z,23.23
2017-09-25T06:27:33.491Z,25.27
2017-09-25T06:29:59.874Z,24.70
2017-09-25T06:32:26.278Z,23.40
2017-09-25T06:34:52.708Z,24.63
2017-09-25T06:37:19.139Z,26.40
2017-09-25T06:39:45.537Z,23.57
2017-09-25T06:42:11.985Z,22.57
2017-09-25T06:44:38.461Z,22.80
2017-09-25T06:47:04.906Z,22.10
2017-09-25T06:49:31.342Z,22.40
2017-09-25T06:51:57.738Z,21.50
2017-09-25T06:54:24.178Z,21.00
2017-09-25T06:56:50.613Z,23.80
2017-09-25T06:59:17.029Z,22.53
2017-09-25T07:01:43.440Z,24.40
2017-09-25T07:04:09.922Z,20.53
2017-09-25T07:06:36.360Z,21.83
2017-09-25T07:09:02.888Z,22.93
2017-09-25T07:11:30.069Z,25.47
2017-09-25T07:13:57.211Z,23.87
2017-09-25T07:16:23.622Z,23.37
2017-09-25T07:18:50.009Z,25.07
2017-09-25T07:21:16.438Z,24.27
2017-09-25T07:23:42.884Z,22.97
2017-09-25T07:26:09.321Z,21.77
2017-09-25T07:28:35.756Z,20.17
2017-09-25T07:31:02.191Z,18.07
2017-09-25T07:33:28.632Z,18.00
2017-09-25T07:35:55.071Z,19.40
2017-09-25T07:38:21.449Z,19.43
2017-09-25T07:40:48.608Z,25.20
2017-09-25T07:43:15.778Z,34.60
2017-09-25T07:45:42.426Z,31.80
2017-09-25T07:48:08.836Z,26.07
2017-09-25T07:50:35.236Z,19.90
2017-09-25T07:53:01.622Z,17.83
2017-09-25T07:55:28.071Z,13.00
2017-09-25T07:57:54.484Z,16.87
2017-09-25T08:00:20.905Z,13.53
2017-09-25T08:02:47.348Z,13.57
2017-09-25T08:05:13.763Z,14.00
2017-09-25T08:07:40.889Z,13.73
2017-09-25T08:10:07.346Z,13.07
2017-09-25T08:12:33.749Z,15.17
2017-09-25T08:15:00.181Z,17.37
2017-09-25T08:17:26.597Z,15.10
2017-09-25T08:19:53.048Z,16.10
2017-09-25T08:22:19.464Z,15.97
2017-09-25T08:24:45.882Z,16.90
2017-09-25T08:27:12.272Z,16.20
2017-09-25T08:29:39.452Z,17.37
2017-09-25T08:32:05.856Z,15.30
2017-09-25T08:34:33.016Z,12.43
2017-09-25T08:36:59.415Z,13.27
2017-09-25T08:39:26.637Z,15.00
2017-09-25T08:41:53.114Z,16.87
2017-09-25T08:44:19.538Z,14.23
2017-09-25T08:46:46.733Z,13.60
2017-09-25T08:49:13.309Z,13.33
2017-09-25T08:51:39.730Z,14.30
2017-09-25T08:54:06.247Z,13.87
2017-09-25T08:56:32.754Z,13.70
2017-09-25T08:58:59.377Z,13.47
2017-09-25T09:01:26.556Z,15.03
2017-09-25T09:03:53.006Z,12.87
2017-09-25T09:06:19.417Z,12.87
2017-09-25T09:08:45.886Z,13.07
2017-09-25T09:11:12.348Z,13.50
2017-09-25T09:13:38.770Z,13.50
2017-09-25T09:16:05.179Z,13.17
2017-09-25T09:18:31.584Z,12.90
2017-09-25T09:20:58.762Z,27.73
2017-09-25T09:23:25.224Z,16.60
2017-09-25T09:25:51.634Z,15.70
2017-09-25T09:28:18.089Z,16.30
2017-09-25T09:30:44.503Z,15.60
2017-09-25T09:33:10.933Z,12.77
2017-09-25T09:35:37.409Z,14.47
2017-09-25T09:38:03.831Z,12.57
2017-09-25T09:40:30.981Z,13.40
2017-09-25T09:42:57.341Z,12.60
2017-09-25T09:45:23.736Z,13.40
2017-09-25T09:47:50.130Z,14.03
2017-09-25T09:50:16.597Z,12.37
2017-09-25T09:52:43.065Z,12.40
2017-09-25T09:55:09.505Z,12.63
2017-09-25T09:57:35.908Z,13.37
2017-09-25T10:00:03.087Z,14.10
2017-09-25T10:02:29.497Z,12.97
2017-09-25T10:04:56.667Z,13.60
2017-09-25T10:07:23.125Z,17.90
2017-09-25T10:09:49.521Z,14.30
2017-09-25T10:12:16.679Z,13.70
2017-09-25T10:14:43.821Z,13.57
2017-09-25T10:17:10.949Z,15.23
2017-09-25T10:19:37.384Z,12.93
2017-09-25T10:22:03.777Z,14.23
2017-09-25T10:24:30.176Z,12.67
2017-09-25T10:26:57.336Z,15.07
2017-09-25T10:29:23.727Z,11.83
2017-09-25T10:31:50.170Z,9.80
2017-09-25T10:34:17.317Z,11.53
2017-09-25T10:36:44.533Z,12.73
2017-09-25T10:39:10.963Z,11.40
2017-09-25T10:41:37.415Z,11.67
2017-09-25T10:44:03.826Z,12.27
2017-09-25T10:46:31.008Z,12.13
2017-09-25T10:48:57.414Z,11.30
2017-09-25T10:51:23.850Z,12.30
2017-09-25T10:53:50.255Z,11.47
2017-09-25T10:56:16.679Z,12.73
2017-09-25T10:58:43.118Z,12.70
2017-09-25T11:01:09.512Z,10.43
2017-09-25T11:03:35.940Z,12.20
2017-09-25T11:06:02.348Z,11.30
2017-09-25T11:08:28.749Z,14.73
2017-09-25T11:10:55.163Z,11.17
2017-09-25T11:13:22.294Z,13.03
2017-09-25T11:15:48.727Z,10.97
2017-09-25T11:18:16.664Z,11.00
2017-09-25T11:20:43.085Z,10.97
2017-09-25T11:23:09.493Z,10.57
2017-09-25T11:25:35.935Z,8.80
2017-09-25T11:28:02.354Z,10.57
2017-09-25T11:30:28.788Z,10.93
2017-09-25T11:32:55.194Z,10.30
2017-09-25T11:35:21.597Z,11.53
2017-09-25T11:37:48.030Z,10.13
2017-09-25T11:40:14.531Z,10.87
2017-09-25T11:42:40.968Z,10.27
2017-09-25T11:45:07.379Z,10.20
2017-09-25T11:47:34.570Z,10.60
2017-09-25T11:50:00.977Z,10.10
2017-09-25T11:52:27.393Z,9.20
2017-09-25T11:54:54.514Z,11.63
2017-09-25T11:57:20.956Z,10.60
2017-09-25T11:59:48.112Z,9.60
2017-09-25T12:02:15.263Z,11.27
2017-09-25T12:04:42.418Z,13.10
2017-09-25T12:10:09.241Z,12.00
2017-09-25T12:12:35.651Z,9.60
2017-09-25T12:15:02.077Z,10.73
2017-09-25T12:17:28.587Z,14.20
2017-09-25T12:19:55.771Z,12.50
2017-09-25T12:22:22.198Z,13.13
2017-09-25T12:24:48.633Z,11.30
2017-09-25T12:27:15.069Z,10.80
2017-09-25T12:29:41.518Z,11.07
2017-09-25T12:32:07.934Z,17.80
2017-09-25T12:34:34.342Z,10.10
2017-09-25T12:37:01.521Z,22.30
2017-09-25T12:39:27.986Z,10.47
2017-09-25T12:41:54.408Z,8.83
2017-09-25T12:44:20.844Z,7.00
2017-09-25T12:46:47.282Z,7.73
2017-09-25T12:49:13.707Z,7.00
2017-09-25T12:51:40.184Z,7.07
2017-09-25T12:54:07.357Z,7.10
2017-09-25T12:56:34.513Z,7.73
2017-09-25T12:59:00.925Z,6.17
2017-09-25T13:01:28.087Z,6.67
2017-09-25T13:03:54.482Z,8.77
2017-09-25T13:06:20.852Z,8.67
2017-09-25T13:08:48.011Z,8.13
2017-09-25T13:11:14.410Z,8.63
2017-09-25T13:13:40.802Z,7.90
2017-09-25T13:16:07.198Z,7.97
2017-09-25T13:18:33.604Z,8.77
2017-09-25T13:21:00.008Z,9.37
2017-09-25T13:23:26.463Z,9.37
2017-09-25T13:25:52.878Z,10.07
2017-09-25T13:28:19.266Z,9.87
2017-09-25T13:30:45.693Z,10.40
2017-09-25T13:33:12.851Z,10.60
2017-09-25T13:35:39.298Z,9.13
2017-09-25T13:38:05.708Z,10.40
2017-09-25T13:40:32.849Z,8.80
2017-09-25T13:42:59.976Z,8.67
2017-09-25T13:45:26.395Z,9.13
2017-09-25T13:47:52.794Z,9.27
2017-09-25T13:50:19.209Z,8.33
2017-09-25T13:52:45.628Z,9.30
2017-09-25T13:55:12.776Z,9.60
2017-09-25T13:57:40.048Z,8.83
2017-09-25T14:02:38.517Z,9.37
2017-09-25T14:05:05.717Z,9.53
2017-09-25T14:07:32.189Z,9.03
2017-09-25T14:10:05.151Z,9.40
2017-09-25T14:12:31.580Z,8.17
2017-09-25T14:14:58.017Z,11.03
2017-09-25T14:17:24.426Z,11.00
2017-09-25T14:19:50.870Z,12.60
2017-09-25T14:22:17.292Z,10.27
2017-09-25T14:24:43.729Z,11.17
2017-09-25T14:27:10.154Z,10.50
2017-09-25T14:29:36.559Z,14.90
2017-09-25T14:32:03.731Z,10.30
2017-09-25T14:34:30.169Z,13.80
2017-09-25T14:36:56.602Z,10.93
2017-09-25T14:39:23.058Z,11.60
2017-09-25T14:41:50.205Z,10.60
2017-09-25T14:44:17.340Z,11.80
2017-09-25T14:46:43.734Z,32.43
2017-09-25T14:49:10.954Z,14.00
2017-09-25T14:51:37.435Z,13.53
2017-09-25T14:54:04.580Z,15.33
2017-09-25T14:56:31.749Z,11.90
2017-09-25T14:58:58.193Z,12.53
2017-09-25T15:01:24.615Z,15.10
2017-09-25T15:03:51.024Z,21.70
2017-09-25T15:06:18.198Z,12.97
2017-09-25T15:08:44.584Z,13.47
2017-09-25T15:11:10.965Z,15.30
2017-09-25T15:13:37.361Z,13.97
2017-09-25T15:16:03.760Z,17.10
2017-09-25T15:18:30.171Z,15.87
2017-09-25T15:20:56.592Z,13.33
2017-09-25T15:23:23.022Z,15.33
2017-09-25T15:25:50.220Z,13.33
2017-09-25T15:28:16.623Z,14.30
2017-09-25T15:30:43.101Z,14.20
2017-09-25T15:33:09.529Z,15.17
2017-09-25T15:35:35.964Z,14.17
2017-09-25T15:38:02.386Z,13.10
2017-09-25T15:40:28.799Z,13.30
2017-09-25T15:42:55.207Z,13.37
2017-09-25T15:45:21.601Z,11.90
2017-09-25T15:47:48.000Z,14.03
2017-09-25T15:50:14.425Z,14.17
2017-09-25T15:52:40.867Z,17.03
2017-09-25T15:55:07.340Z,23.10
2017-09-25T15:57:33.738Z,17.40
2017-09-25T16:00:00.195Z,16.10
2017-09-25T16:02:26.600Z,15.23
2017-09-25T16:04:53.078Z,15.40
2017-09-25T16:07:20.424Z,14.83
2017-09-25T16:09:46.820Z,13.50
2017-09-25T16:12:13.234Z,14.80
2017-09-25T16:14:39.659Z,15.30
2017-09-25T16:17:06.099Z,16.40
2017-09-25T16:19:32.523Z,15.27
2017-09-25T16:21:58.951Z,15.87
2017-09-25T16:24:26.082Z,17.00
2017-09-25T16:26:52.557Z,16.57
2017-09-25T16:29:18.942Z,16.37
2017-09-25T16:31:45.420Z,18.10
2017-09-25T16:34:11.840Z,18.03
2017-09-25T16:36:38.259Z,17.40
2017-09-25T16:39:05.440Z,20.57
2017-09-25T16:41:31.878Z,18.73
2017-09-25T16:43:59.017Z,23.37
2017-09-25T16:46:25.440Z,27.60
2017-09-25T16:48:51.865Z,28.60
2017-09-25T16:51:18.990Z,35.53
2017-09-25T16:53:45.452Z,55.27
2017-09-25T16:56:11.818Z,36.47
2017-09-25T16:58:38.225Z,17.00
2017-09-25T17:01:04.682Z,15.97
2017-09-25T17:03:31.097Z,24.13
2017-09-25T17:05:57.515Z,21.83
2017-09-25T17:08:23.956Z,27.27
2017-09-25T17:10:50.380Z,17.27
2017-09-25T17:13:17.541Z,17.07
2017-09-25T17:15:43.944Z,17.33
2017-09-25T17:18:11.121Z,38.37
2017-09-25T17:20:37.530Z,17.40
2017-09-25T17:23:04.664Z,15.63
2017-09-25T17:25:31.809Z,24.07
2017-09-25T17:27:58.227Z,19.97
2017-09-25T17:30:24.635Z,18.83
2017-09-25T17:32:51.036Z,22.27
2017-09-25T17:35:18.241Z,27.93
2017-09-25T17:37:44.665Z,37.37
2017-09-25T17:40:11.082Z,46.33
2017-09-25T17:42:37.493Z,64.23
2017-09-25T17:45:03.891Z,63.50
2017-09-25T17:47:30.321Z,38.13
2017-09-25T17:49:56.743Z,19.90
2017-09-25T17:52:23.128Z,17.67
2017-09-25T17:54:49.644Z,16.50
2017-09-25T17:57:16.080Z,17.60
2017-09-25T17:59:43.225Z,20.07
2017-09-25T18:02:10.907Z,18.93
2017-09-25T18:04:37.312Z,25.40
2017-09-25T18:07:04.459Z,23.10
2017-09-25T18:09:30.924Z,24.07
2017-09-25T18:11:57.325Z,18.40
2017-09-25T18:14:23.721Z,21.10
2017-09-25T18:16:50.156Z,19.53
2017-09-25T18:19:16.602Z,19.97
2017-09-25T18:21:43.025Z,16.63
2017-09-25T18:24:09.489Z,18.00
2017-09-25T18:26:35.949Z,21.87
2017-09-25T18:29:02.397Z,19.10
2017-09-25T18:31:28.865Z,17.73
2017-09-25T18:33:55.329Z,18.57
2017-09-25T18:36:22.525Z,19.27
2017-09-25T18:38:48.912Z,18.50
2017-09-25T18:41:15.344Z,19.47
2017-09-25T18:43:42.509Z,17.30
2017-09-25T18:46:09.656Z,18.27
2017-09-25T18:48:36.828Z,17.07
2017-09-25T18:51:03.280Z,15.93
2017-09-25T18:53:29.773Z,16.53
2017-09-25T18:55:56.942Z,17.23
2017-09-25T18:58:23.395Z,15.17
2017-09-25T19:00:49.851Z,15.63
2017-09-25T19:03:16.284Z,15.90
2017-09-25T19:05:43.428Z,16.13
2017-09-25T19:08:09.849Z,16.00
2017-09-25T19:10:36.286Z,14.50
2017-09-25T19:13:02.697Z,15.40
2017-09-25T19:15:29.139Z,16.23
2017-09-25T19:17:55.542Z,16.43
2017-09-25T19:20:22.716Z,17.10
2017-09-25T19:22:49.160Z,14.40
2017-09-25T19:25:15.586Z,16.80
2017-09-25T19:27:42.100Z,16.60
2017-09-25T19:30:08.556Z,16.40
2017-09-25T19:32:34.950Z,14.33
2017-09-25T19:35:02.143Z,16.17
2017-09-25T19:37:28.552Z,17.03
2017-09-25T19:39:54.984Z,16.93
2017-09-25T19:42:22.141Z,16.37
2017-09-25T19:44:48.572Z,15.53
2017-09-25T19:47:15.016Z,15.00
2017-09-25T19:49:46.503Z,16.67
2017-09-25T19:52:13.152Z,15.80
2017-09-25T19:54:49.128Z,16.50
2017-09-25T19:57:35.934Z,18.00
2017-09-25T20:00:03.117Z,17.20
2017-09-25T20:02:29.620Z,17.83
2017-09-25T20:04:56.784Z,16.20
2017-09-25T20:07:24.012Z,17.63
2017-09-25T20:09:50.435Z,16.47
2017-09-25T20:12:16.868Z,15.27
2017-09-25T20:14:46.253Z,17.53
2017-09-25T20:17:15.441Z,17.97
2017-09-25T20:19:41.972Z,16.80
2017-09-25T20:22:08.393Z,17.00
2017-09-25T20:24:34.824Z,16.90
2017-09-25T20:27:01.238Z,15.63
2017-09-25T20:29:28.392Z,16.50
2017-09-25T20:34:27.985Z,16.97
2017-09-25T20:36:55.959Z,15.93
2017-09-25T20:39:22.382Z,18.30
2017-09-25T20:41:52.712Z,16.00
2017-09-25T20:44:19.273Z,18.30
2017-09-25T20:46:45.703Z,16.53
2017-09-25T20:49:12.864Z,17.90
2017-09-25T20:51:39.262Z,17.87
2017-09-25T20:54:06.456Z,17.13
2017-09-25T20:56:32.915Z,16.47
2017-09-25T20:58:59.329Z,17.63
2017-09-25T21:01:25.770Z,17.23
2017-09-25T21:03:52.198Z,17.67
2017-09-25T21:06:18.628Z,16.83
2017-09-25T21:08:45.112Z,17.23
2017-09-25T21:11:11.559Z,19.83
2017-09-25T21:13:38.750Z,19.63
2017-09-25T21:16:05.161Z,17.83
2017-09-25T21:18:31.653Z,22.07
2017-09-25T21:20:58.046Z,18.87
2017-09-25T21:23:25.227Z,18.97
2017-09-25T21:25:54.604Z,21.80
2017-09-25T21:28:21.074Z,22.57
2017-09-25T21:30:48.229Z,21.60
2017-09-25T21:33:14.645Z,21.07
2017-09-25T21:35:41.059Z,19.97
2017-09-25T21:38:07.465Z,21.60
2017-09-25T21:40:33.882Z,20.80
2017-09-25T21:43:01.048Z,21.33
2017-09-25T21:45:27.438Z,20.90
2017-09-25T21:47:54.583Z,21.63
2017-09-25T21:50:34.786Z,24.67
2017-09-25T21:53:01.218Z,21.93
2017-09-25T21:55:40.870Z,22.43
2017-09-25T21:58:07.303Z,22.60
2017-09-25T22:00:33.802Z,22.70
2017-09-25T22:03:00.191Z,23.93
2017-09-25T22:05:26.601Z,23.83
2017-09-25T22:07:53.018Z,23.20
2017-09-25T22:10:20.225Z,24.27
2017-09-25T22:12:46.650Z,23.83
2017-09-25T22:15:13.054Z,25.60
2017-09-25T22:17:39.460Z,26.07
2017-09-25T22:20:06.632Z,23.33
2017-09-25T22:22:33.085Z,24.93
2017-09-25T22:24:59.464Z,24.70
2017-09-25T22:27:25.894Z,23.77
2017-09-25T22:29:52.306Z,29.17
2017-09-25T22:32:18.794Z,26.67
2017-09-25T22:34:45.225Z,27.33
2017-09-25T22:37:11.657Z,28.10
2017-09-25T22:39:38.096Z,27.77
2017-09-25T22:42:04.532Z,25.77
2017-09-25T22:44:30.981Z,23.40
2017-09-25T22:46:57.391Z,27.53
2017-09-25T22:49:23.832Z,28.83
2017-09-25T22:51:50.295Z,27.87
2017-09-25T22:54:17.480Z,28.83
2017-09-25T22:56:44.652Z,26.97
2017-09-25T22:59:11.084Z,27.90
2017-09-25T23:01:38.321Z,28.57
2017-09-25T23:04:09.349Z,27.70
2017-09-25T23:06:35.781Z,27.40
2017-09-25T23:09:02.225Z,26.50
2017-09-25T23:11:29.412Z,28.50
2017-09-25T23:13:55.861Z,27.57
2017-09-25T23:16:22.257Z,28.83
2017-09-25T23:18:48.694Z,29.63
2017-09-25T23:21:15.815Z,30.17
2017-09-25T23:23:42.230Z,31.23
2017-09-25T23:26:08.686Z,28.97
2017-09-25T23:28:35.860Z,29.90
2017-09-25T23:31:03.249Z,31.83
2017-09-25T23:33:29.664Z,32.27
2017-09-25T23:35:56.081Z,29.73
2017-09-25T23:38:23.220Z,30.50
2017-09-25T23:40:50.368Z,29.67
2017-09-25T23:43:16.775Z,30.70
2017-09-25T23:45:43.209Z,31.87
2017-09-25T23:48:09.610Z,30.77
2017-09-25T23:50:36.012Z,33.10
2017-09-25T23:53:02.442Z,32.13
2017-09-25T23:55:29.561Z,32.00
2017-09-25T23:57:55.964Z,32.53
